sensor_id;sensor_type;location;lat;lon;timestamp;temperature;humidity
6377;DHT22;3221;48.858;10.128;2022-07-05T00:01:37;18.00;97.00
6377;DHT22;3221;48.858;10.128;2022-07-05T00:04:04;18.00;97.00
6377;DHT22;3221;48.858;10.128;2022-07-05T00:06:31;17.90;96.90
6377;DHT22;3221;48.858;10.128;2022-07-05T00:08:58;17.90;96.60
6377;DHT22;3221;48.858;10.128;2022-07-05T00:11:25;17.80;96.50
6377;DHT22;3221;48.858;10.128;2022-07-05T00:13:52;17.80;96.30
6377;DHT22;3221;48.858;10.128;2022-07-05T00:16:19;17.80;96.30
6377;DHT22;3221;48.858;10.128;2022-07-05T00:18:46;17.70;96.40
6377;DHT22;3221;48.858;10.128;2022-07-05T00:21:13;17.70;96.00
6377;DHT22;3221;48.858;10.128;2022-07-05T00:23:40;17.70;96.10
6377;DHT22;3221;48.858;10.128;2022-07-05T00:26:07;17.60;95.90
6377;DHT22;3221;48.858;10.128;2022-07-05T00:28:34;17.50;95.30
6377;DHT22;3221;48.858;10.128;2022-07-05T00:31:01;17.40;95.70
6377;DHT22;3221;48.858;10.128;2022-07-05T00:33:28;17.50;96.10
6377;DHT22;3221;48.858;10.128;2022-07-05T00:35:55;17.50;96.20
6377;DHT22;3221;48.858;10.128;2022-07-05T00:38:22;17.50;95.90
6377;DHT22;3221;48.858;10.128;2022-07-05T00:40:50;17.40;95.70
6377;DHT22;3221;48.858;10.128;2022-07-05T00:43:17;17.40;95.60
6377;DHT22;3221;48.858;10.128;2022-07-05T00:45:44;17.30;95.40
6377;DHT22;3221;48.858;10.128;2022-07-05T00:48:11;17.40;95.90
6377;DHT22;3221;48.858;10.128;2022-07-05T00:50:38;17.50;96.00
6377;DHT22;3221;48.858;10.128;2022-07-05T00:53:11;17.40;95.50
6377;DHT22;3221;48.858;10.128;2022-07-05T00:55:38;17.40;95.80
6377;DHT22;3221;48.858;10.128;2022-07-05T00:58:05;17.40;95.30
6377;DHT22;3221;48.858;10.128;2022-07-05T01:00:32;17.30;95.40
6377;DHT22;3221;48.858;10.128;2022-07-05T01:02:59;17.40;95.40
6377;DHT22;3221;48.858;10.128;2022-07-05T01:05:26;17.40;95.30
6377;DHT22;3221;48.858;10.128;2022-07-05T01:07:53;17.30;95.40
6377;DHT22;3221;48.858;10.128;2022-07-05T01:10:21;17.30;95.10
6377;DHT22;3221;48.858;10.128;2022-07-05T01:12:48;17.20;95.30
6377;DHT22;3221;48.858;10.128;2022-07-05T01:15:16;17.20;95.40
6377;DHT22;3221;48.858;10.128;2022-07-05T01:17:47;17.10;95.60
6377;DHT22;3221;48.858;10.128;2022-07-05T01:20:14;17.10;95.50
6377;DHT22;3221;48.858;10.128;2022-07-05T01:22:52;17.00;95.50
6377;DHT22;3221;48.858;10.128;2022-07-05T01:25:24;17.00;95.60
6377;DHT22;3221;48.858;10.128;2022-07-05T01:27:52;16.90;95.20
6377;DHT22;3221;48.858;10.128;2022-07-05T01:30:19;16.90;95.60
6377;DHT22;3221;48.858;10.128;2022-07-05T01:32:47;16.80;95.40
6377;DHT22;3221;48.858;10.128;2022-07-05T01:35:15;16.80;95.30
6377;DHT22;3221;48.858;10.128;2022-07-05T01:37:48;16.80;95.20
6377;DHT22;3221;48.858;10.128;2022-07-05T01:40:16;16.70;95.00
6377;DHT22;3221;48.858;10.128;2022-07-05T01:42:44;16.70;95.40
6377;DHT22;3221;48.858;10.128;2022-07-05T01:45:11;16.70;95.50
6377;DHT22;3221;48.858;10.128;2022-07-05T01:47:42;16.70;95.70
6377;DHT22;3221;48.858;10.128;2022-07-05T01:50:13;16.70;95.70
6377;DHT22;3221;48.858;10.128;2022-07-05T01:52:46;16.70;95.80
6377;DHT22;3221;48.858;10.128;2022-07-05T01:55:14;16.60;95.60
6377;DHT22;3221;48.858;10.128;2022-07-05T01:57:41;16.60;96.20
6377;DHT22;3221;48.858;10.128;2022-07-05T02:00:08;16.60;95.90
6377;DHT22;3221;48.858;10.128;2022-07-05T02:02:42;16.50;96.00
6377;DHT22;3221;48.858;10.128;2022-07-05T02:05:09;16.40;95.70
6377;DHT22;3221;48.858;10.128;2022-07-05T02:07:47;16.40;96.20
6377;DHT22;3221;48.858;10.128;2022-07-05T02:10:14;16.40;96.10
6377;DHT22;3221;48.858;10.128;2022-07-05T02:12:42;16.40;96.20
6377;DHT22;3221;48.858;10.128;2022-07-05T02:15:09;16.40;96.20
6377;DHT22;3221;48.858;10.128;2022-07-05T02:17:37;16.30;96.20
6377;DHT22;3221;48.858;10.128;2022-07-05T02:20:05;16.20;96.20
6377;DHT22;3221;48.858;10.128;2022-07-05T02:22:33;16.20;96.30
6377;DHT22;3221;48.858;10.128;2022-07-05T02:25:00;16.20;96.10
6377;DHT22;3221;48.858;10.128;2022-07-05T02:27:27;16.20;96.10
6377;DHT22;3221;48.858;10.128;2022-07-05T02:29:54;16.10;96.10
6377;DHT22;3221;48.858;10.128;2022-07-05T02:32:41;16.10;96.20
6377;DHT22;3221;48.858;10.128;2022-07-05T02:35:10;16.10;96.30
6377;DHT22;3221;48.858;10.128;2022-07-05T02:37:37;16.10;96.30
6377;DHT22;3221;48.858;10.128;2022-07-05T02:40:08;16.10;96.50
6377;DHT22;3221;48.858;10.128;2022-07-05T02:42:39;16.10;96.60
6377;DHT22;3221;48.858;10.128;2022-07-05T02:45:09;16.10;96.50
6377;DHT22;3221;48.858;10.128;2022-07-05T02:47:37;16.00;96.50
6377;DHT22;3221;48.858;10.128;2022-07-05T02:50:06;16.00;96.80
6377;DHT22;3221;48.858;10.128;2022-07-05T02:52:36;16.00;96.90
6377;DHT22;3221;48.858;10.128;2022-07-05T02:55:05;16.00;96.70
6377;DHT22;3221;48.858;10.128;2022-07-05T02:57:32;16.00;96.80
6377;DHT22;3221;48.858;10.128;2022-07-05T03:00:04;16.00;97.10
6377;DHT22;3221;48.858;10.128;2022-07-05T03:02:38;16.00;97.00
6377;DHT22;3221;48.858;10.128;2022-07-05T03:05:06;16.00;97.10
6377;DHT22;3221;48.858;10.128;2022-07-05T03:07:33;16.00;97.00
6377;DHT22;3221;48.858;10.128;2022-07-05T03:10:01;15.90;96.90
6377;DHT22;3221;48.858;10.128;2022-07-05T03:12:29;15.70;96.80
6377;DHT22;3221;48.858;10.128;2022-07-05T03:14:56;15.70;97.00
6377;DHT22;3221;48.858;10.128;2022-07-05T03:17:23;15.70;97.10
6377;DHT22;3221;48.858;10.128;2022-07-05T03:19:51;15.70;97.40
6377;DHT22;3221;48.858;10.128;2022-07-05T03:22:20;15.70;97.00
6377;DHT22;3221;48.858;10.128;2022-07-05T03:24:48;15.60;97.00
6377;DHT22;3221;48.858;10.128;2022-07-05T03:27:16;15.60;96.90
6377;DHT22;3221;48.858;10.128;2022-07-05T03:29:48;15.60;97.00
6377;DHT22;3221;48.858;10.128;2022-07-05T03:32:15;15.50;96.90
6377;DHT22;3221;48.858;10.128;2022-07-05T03:34:43;15.60;97.40
6377;DHT22;3221;48.858;10.128;2022-07-05T03:37:11;15.50;97.20
6377;DHT22;3221;48.858;10.128;2022-07-05T03:39:38;15.50;97.10
6377;DHT22;3221;48.858;10.128;2022-07-05T03:42:05;15.50;97.20
6377;DHT22;3221;48.858;10.128;2022-07-05T03:44:33;15.50;97.20
6377;DHT22;3221;48.858;10.128;2022-07-05T03:47:02;15.40;97.10
6377;DHT22;3221;48.858;10.128;2022-07-05T03:49:29;15.40;97.20
6377;DHT22;3221;48.858;10.128;2022-07-05T03:51:56;15.40;97.80
6377;DHT22;3221;48.858;10.128;2022-07-05T03:54:23;15.40;97.60
6377;DHT22;3221;48.858;10.128;2022-07-05T03:56:51;15.50;97.60
6377;DHT22;3221;48.858;10.128;2022-07-05T03:59:17;15.40;97.30
6377;DHT22;3221;48.858;10.128;2022-07-05T04:01:45;15.50;97.60
6377;DHT22;3221;48.858;10.128;2022-07-05T04:04:13;15.50;97.70
6377;DHT22;3221;48.858;10.128;2022-07-05T04:06:41;15.50;97.60
6377;DHT22;3221;48.858;10.128;2022-07-05T04:09:08;15.50;97.70
6377;DHT22;3221;48.858;10.128;2022-07-05T04:11:35;15.50;97.60
6377;DHT22;3221;48.858;10.128;2022-07-05T04:14:03;15.40;97.60
6377;DHT22;3221;48.858;10.128;2022-07-05T04:16:30;15.40;97.60
6377;DHT22;3221;48.858;10.128;2022-07-05T04:19:00;15.40;98.10
6377;DHT22;3221;48.858;10.128;2022-07-05T04:21:29;15.40;98.40
6377;DHT22;3221;48.858;10.128;2022-07-05T04:23:56;15.50;98.50
6377;DHT22;3221;48.858;10.128;2022-07-05T04:26:23;15.50;98.70
6377;DHT22;3221;48.858;10.128;2022-07-05T04:28:50;15.50;98.60
6377;DHT22;3221;48.858;10.128;2022-07-05T04:31:26;15.50;98.70
6377;DHT22;3221;48.858;10.128;2022-07-05T04:33:55;15.50;98.40
6377;DHT22;3221;48.858;10.128;2022-07-05T04:36:26;15.50;98.30
6377;DHT22;3221;48.858;10.128;2022-07-05T04:38:55;15.50;98.30
6377;DHT22;3221;48.858;10.128;2022-07-05T04:41:23;15.50;98.50
6377;DHT22;3221;48.858;10.128;2022-07-05T04:43:50;15.40;98.50
6377;DHT22;3221;48.858;10.128;2022-07-05T04:46:18;15.40;98.60
6377;DHT22;3221;48.858;10.128;2022-07-05T04:48:47;15.40;98.80
6377;DHT22;3221;48.858;10.128;2022-07-05T04:51:15;15.40;98.60
6377;DHT22;3221;48.858;10.128;2022-07-05T04:53:42;15.30;98.60
6377;DHT22;3221;48.858;10.128;2022-07-05T04:56:09;15.30;98.80
6377;DHT22;3221;48.858;10.128;2022-07-05T04:58:36;15.30;98.70
6377;DHT22;3221;48.858;10.128;2022-07-05T05:01:03;15.30;98.90
6377;DHT22;3221;48.858;10.128;2022-07-05T05:03:30;15.30;99.30
6377;DHT22;3221;48.858;10.128;2022-07-05T05:05:57;15.40;99.90
6377;DHT22;3221;48.858;10.128;2022-07-05T05:08:24;15.40;99.60
6377;DHT22;3221;48.858;10.128;2022-07-05T05:10:51;15.40;99.80
6377;DHT22;3221;48.858;10.128;2022-07-05T05:13:18;15.50;99.70
6377;DHT22;3221;48.858;10.128;2022-07-05T05:15:45;15.50;99.80
6377;DHT22;3221;48.858;10.128;2022-07-05T05:18:12;15.60;99.70
6377;DHT22;3221;48.858;10.128;2022-07-05T05:20:40;15.60;99.90
6377;DHT22;3221;48.858;10.128;2022-07-05T05:23:07;15.60;99.90
6377;DHT22;3221;48.858;10.128;2022-07-05T05:25:34;15.50;99.80
6377;DHT22;3221;48.858;10.128;2022-07-05T05:28:02;15.70;99.90
6377;DHT22;3221;48.858;10.128;2022-07-05T05:30:30;15.70;99.70
6377;DHT22;3221;48.858;10.128;2022-07-05T05:32:57;15.80;99.40
6377;DHT22;3221;48.858;10.128;2022-07-05T05:35:24;15.80;99.80
6377;DHT22;3221;48.858;10.128;2022-07-05T05:37:52;15.80;99.90
6377;DHT22;3221;48.858;10.128;2022-07-05T05:40:21;15.90;99.70
6377;DHT22;3221;48.858;10.128;2022-07-05T05:42:49;16.00;99.90
6377;DHT22;3221;48.858;10.128;2022-07-05T05:45:16;16.00;99.70
6377;DHT22;3221;48.858;10.128;2022-07-05T05:47:54;16.00;99.90
6377;DHT22;3221;48.858;10.128;2022-07-05T05:52:56;16.20;99.80
6377;DHT22;3221;48.858;10.128;2022-07-05T05:55:24;16.40;99.90
6377;DHT22;3221;48.858;10.128;2022-07-05T05:57:53;16.50;99.90
6377;DHT22;3221;48.858;10.128;2022-07-05T06:00:21;16.40;99.90
6377;DHT22;3221;48.858;10.128;2022-07-05T06:02:49;16.40;99.70
6377;DHT22;3221;48.858;10.128;2022-07-05T06:05:17;16.40;99.90
6377;DHT22;3221;48.858;10.128;2022-07-05T06:07:50;16.40;99.90
6377;DHT22;3221;48.858;10.128;2022-07-05T06:10:27;16.40;99.80
6377;DHT22;3221;48.858;10.128;2022-07-05T06:12:58;16.50;99.90
6377;DHT22;3221;48.858;10.128;2022-07-05T06:15:26;16.50;99.70
6377;DHT22;3221;48.858;10.128;2022-07-05T06:17:53;16.50;99.70
6377;DHT22;3221;48.858;10.128;2022-07-05T06:20:25;16.50;99.60
6377;DHT22;3221;48.858;10.128;2022-07-05T06:22:53;16.50;99.60
6377;DHT22;3221;48.858;10.128;2022-07-05T06:25:21;16.60;99.60
6377;DHT22;3221;48.858;10.128;2022-07-05T06:27:55;16.60;99.60
6377;DHT22;3221;48.858;10.128;2022-07-05T06:30:26;16.70;99.80
6377;DHT22;3221;48.858;10.128;2022-07-05T06:32:54;16.70;99.60
6377;DHT22;3221;48.858;10.128;2022-07-05T06:35:22;16.70;99.50
6377;DHT22;3221;48.858;10.128;2022-07-05T06:38:02;16.70;99.90
6377;DHT22;3221;48.858;10.128;2022-07-05T06:40:29;16.80;99.70
6377;DHT22;3221;48.858;10.128;2022-07-05T06:42:59;16.90;99.50
6377;DHT22;3221;48.858;10.128;2022-07-05T06:45:38;16.90;99.70
6377;DHT22;3221;48.858;10.128;2022-07-05T06:48:10;16.90;99.80
6377;DHT22;3221;48.858;10.128;2022-07-05T06:50:39;16.90;99.90
6377;DHT22;3221;48.858;10.128;2022-07-05T06:53:07;16.90;99.90
6377;DHT22;3221;48.858;10.128;2022-07-05T06:55:34;17.00;99.80
6377;DHT22;3221;48.858;10.128;2022-07-05T06:58:02;17.00;99.90
6377;DHT22;3221;48.858;10.128;2022-07-05T07:00:39;17.10;99.90
6377;DHT22;3221;48.858;10.128;2022-07-05T07:03:26;17.10;99.90
6377;DHT22;3221;48.858;10.128;2022-07-05T07:06:14;17.30;99.90
6377;DHT22;3221;48.858;10.128;2022-07-05T07:08:41;17.40;99.90
6377;DHT22;3221;48.858;10.128;2022-07-05T07:11:26;17.50;99.90
6377;DHT22;3221;48.858;10.128;2022-07-05T07:13:53;17.60;99.90
6377;DHT22;3221;48.858;10.128;2022-07-05T07:16:20;17.70;99.90
6377;DHT22;3221;48.858;10.128;2022-07-05T07:18:47;17.60;99.90
6377;DHT22;3221;48.858;10.128;2022-07-05T07:21:34;17.60;99.90
6377;DHT22;3221;48.858;10.128;2022-07-05T07:24:01;17.60;99.90
6377;DHT22;3221;48.858;10.128;2022-07-05T07:26:28;17.60;99.90
6377;DHT22;3221;48.858;10.128;2022-07-05T07:28:55;17.60;99.90
6377;DHT22;3221;48.858;10.128;2022-07-05T07:31:22;17.60;99.90
6377;DHT22;3221;48.858;10.128;2022-07-05T07:33:49;17.70;99.90
6377;DHT22;3221;48.858;10.128;2022-07-05T07:36:16;17.80;99.90
6377;DHT22;3221;48.858;10.128;2022-07-05T07:38:43;17.80;99.90
6377;DHT22;3221;48.858;10.128;2022-07-05T07:41:11;17.90;99.90
6377;DHT22;3221;48.858;10.128;2022-07-05T07:43:38;18.00;99.90
6377;DHT22;3221;48.858;10.128;2022-07-05T07:46:05;18.10;99.90
6377;DHT22;3221;48.858;10.128;2022-07-05T07:48:33;18.00;99.90
6377;DHT22;3221;48.858;10.128;2022-07-05T07:50:59;18.20;99.90
6377;DHT22;3221;48.858;10.128;2022-07-05T07:53:26;18.10;99.90
6377;DHT22;3221;48.858;10.128;2022-07-05T07:55:53;18.20;99.90
6377;DHT22;3221;48.858;10.128;2022-07-05T07:58:20;18.30;99.90
6377;DHT22;3221;48.858;10.128;2022-07-05T08:00:47;18.20;99.90
6377;DHT22;3221;48.858;10.128;2022-07-05T08:03:14;18.30;99.90
6377;DHT22;3221;48.858;10.128;2022-07-05T08:05:41;18.40;99.90
6377;DHT22;3221;48.858;10.128;2022-07-05T08:08:08;18.70;99.30
6377;DHT22;3221;48.858;10.128;2022-07-05T08:10:35;18.80;99.20
6377;DHT22;3221;48.858;10.128;2022-07-05T08:13:01;18.70;99.20
6377;DHT22;3221;48.858;10.128;2022-07-05T08:15:28;18.70;99.30
6377;DHT22;3221;48.858;10.128;2022-07-05T08:17:55;18.70;99.20
6377;DHT22;3221;48.858;10.128;2022-07-05T08:20:41;18.60;99.30
6377;DHT22;3221;48.858;10.128;2022-07-05T08:23:26;18.60;99.40
6377;DHT22;3221;48.858;10.128;2022-07-05T08:25:58;18.60;99.70
6377;DHT22;3221;48.858;10.128;2022-07-05T08:28:25;18.60;99.80
6377;DHT22;3221;48.858;10.128;2022-07-05T08:30:53;18.70;99.50
6377;DHT22;3221;48.858;10.128;2022-07-05T08:33:20;18.90;99.90
6377;DHT22;3221;48.858;10.128;2022-07-05T08:35:47;19.00;99.40
6377;DHT22;3221;48.858;10.128;2022-07-05T08:38:14;19.10;99.50
6377;DHT22;3221;48.858;10.128;2022-07-05T08:40:44;19.10;99.40
6377;DHT22;3221;48.858;10.128;2022-07-05T08:43:13;19.10;99.30
6377;DHT22;3221;48.858;10.128;2022-07-05T08:45:45;19.20;99.10
6377;DHT22;3221;48.858;10.128;2022-07-05T08:48:16;19.30;99.30
6377;DHT22;3221;48.858;10.128;2022-07-05T08:50:43;19.30;99.20
6377;DHT22;3221;48.858;10.128;2022-07-05T08:53:10;19.40;99.10
6377;DHT22;3221;48.858;10.128;2022-07-05T08:55:37;19.60;98.70
6377;DHT22;3221;48.858;10.128;2022-07-05T08:58:04;19.60;98.60
6377;DHT22;3221;48.858;10.128;2022-07-05T09:00:32;19.60;98.00
6377;DHT22;3221;48.858;10.128;2022-07-05T09:03:05;19.60;98.40
6377;DHT22;3221;48.858;10.128;2022-07-05T09:05:41;19.80;97.70
6377;DHT22;3221;48.858;10.128;2022-07-05T09:08:11;19.80;97.80
6377;DHT22;3221;48.858;10.128;2022-07-05T09:10:40;19.80;97.90
6377;DHT22;3221;48.858;10.128;2022-07-05T09:13:15;19.90;97.90
6377;DHT22;3221;48.858;10.128;2022-07-05T09:15:42;20.10;97.80
6377;DHT22;3221;48.858;10.128;2022-07-05T09:18:10;20.10;97.40
6377;DHT22;3221;48.858;10.128;2022-07-05T09:20:37;20.10;97.00
6377;DHT22;3221;48.858;10.128;2022-07-05T09:23:04;20.10;97.10
6377;DHT22;3221;48.858;10.128;2022-07-05T09:25:32;20.10;96.90
6377;DHT22;3221;48.858;10.128;2022-07-05T09:28:02;20.10;97.70
6377;DHT22;3221;48.858;10.128;2022-07-05T09:30:38;20.10;97.50
6377;DHT22;3221;48.858;10.128;2022-07-05T09:33:12;20.10;97.20
6377;DHT22;3221;48.858;10.128;2022-07-05T09:35:43;20.10;97.20
6377;DHT22;3221;48.858;10.128;2022-07-05T09:38:20;20.10;97.60
6377;DHT22;3221;48.858;10.128;2022-07-05T09:40:50;20.10;96.50
6377;DHT22;3221;48.858;10.128;2022-07-05T09:43:22;20.20;97.00
6377;DHT22;3221;48.858;10.128;2022-07-05T09:46:03;20.30;97.50
6377;DHT22;3221;48.858;10.128;2022-07-05T09:48:31;20.30;96.60
6377;DHT22;3221;48.858;10.128;2022-07-05T09:51:09;20.30;96.70
6377;DHT22;3221;48.858;10.128;2022-07-05T09:53:57;20.40;97.20
6377;DHT22;3221;48.858;10.128;2022-07-05T09:56:29;20.40;96.20
6377;DHT22;3221;48.858;10.128;2022-07-05T09:59:17;20.20;96.50
6377;DHT22;3221;48.858;10.128;2022-07-05T10:01:46;20.30;96.30
6377;DHT22;3221;48.858;10.128;2022-07-05T10:04:13;20.40;96.10
6377;DHT22;3221;48.858;10.128;2022-07-05T10:06:40;20.60;95.30
6377;DHT22;3221;48.858;10.128;2022-07-05T10:09:09;20.60;95.60
6377;DHT22;3221;48.858;10.128;2022-07-05T10:11:41;20.70;95.50
6377;DHT22;3221;48.858;10.128;2022-07-05T10:14:15;20.80;95.40
6377;DHT22;3221;48.858;10.128;2022-07-05T10:16:46;20.70;95.40
6377;DHT22;3221;48.858;10.128;2022-07-05T10:19:18;20.70;95.30
6377;DHT22;3221;48.858;10.128;2022-07-05T10:21:46;20.80;95.90
6377;DHT22;3221;48.858;10.128;2022-07-05T10:24:34;20.70;94.90
6377;DHT22;3221;48.858;10.128;2022-07-05T10:27:05;20.80;95.70
6377;DHT22;3221;48.858;10.128;2022-07-05T10:29:34;20.60;95.70
6377;DHT22;3221;48.858;10.128;2022-07-05T10:32:01;20.60;95.80
6377;DHT22;3221;48.858;10.128;2022-07-05T10:34:32;20.80;95.70
6377;DHT22;3221;48.858;10.128;2022-07-05T10:37:19;20.80;95.10
6377;DHT22;3221;48.858;10.128;2022-07-05T10:39:48;20.80;95.80
6377;DHT22;3221;48.858;10.128;2022-07-05T10:42:15;20.90;95.80
6377;DHT22;3221;48.858;10.128;2022-07-05T10:44:43;20.90;95.40
6377;DHT22;3221;48.858;10.128;2022-07-05T10:47:12;20.80;95.60
6377;DHT22;3221;48.858;10.128;2022-07-05T10:49:40;20.70;95.50
6377;DHT22;3221;48.858;10.128;2022-07-05T10:52:24;20.70;96.00
6377;DHT22;3221;48.858;10.128;2022-07-05T10:55:21;20.70;96.30
6377;DHT22;3221;48.858;10.128;2022-07-05T11:00:46;20.90;95.70
6377;DHT22;3221;48.858;10.128;2022-07-05T11:05:59;21.10;95.90
6377;DHT22;3221;48.858;10.128;2022-07-05T11:08:26;21.20;96.00
6377;DHT22;3221;48.858;10.128;2022-07-05T11:11:10;21.00;94.50
6377;DHT22;3221;48.858;10.128;2022-07-05T11:13:40;20.90;95.80
6377;DHT22;3221;48.858;10.128;2022-07-05T11:16:21;20.90;95.80
6377;DHT22;3221;48.858;10.128;2022-07-05T11:19:11;21.10;95.70
6377;DHT22;3221;48.858;10.128;2022-07-05T11:22:05;21.20;95.40
6377;DHT22;3221;48.858;10.128;2022-07-05T11:24:37;21.20;95.70
6377;DHT22;3221;48.858;10.128;2022-07-05T11:27:10;21.10;95.50
6377;DHT22;3221;48.858;10.128;2022-07-05T11:34:46;21.20;93.70
6377;DHT22;3221;48.858;10.128;2022-07-05T11:42:47;21.10;95.20
6377;DHT22;3221;48.858;10.128;2022-07-05T11:45:15;21.10;95.60
6377;DHT22;3221;48.858;10.128;2022-07-05T11:47:42;21.00;95.50
6377;DHT22;3221;48.858;10.128;2022-07-05T11:50:10;21.10;95.30
6377;DHT22;3221;48.858;10.128;2022-07-05T11:52:39;21.20;96.50
6377;DHT22;3221;48.858;10.128;2022-07-05T11:55:10;21.50;95.10
6377;DHT22;3221;48.858;10.128;2022-07-05T11:57:47;21.70;94.90
6377;DHT22;3221;48.858;10.128;2022-07-05T12:00:28;21.60;94.60
6377;DHT22;3221;48.858;10.128;2022-07-05T12:02:55;21.80;94.90
6377;DHT22;3221;48.858;10.128;2022-07-05T12:05:22;21.80;94.90
6377;DHT22;3221;48.858;10.128;2022-07-05T12:07:51;21.90;94.70
6377;DHT22;3221;48.858;10.128;2022-07-05T12:10:19;21.80;95.30
6377;DHT22;3221;48.858;10.128;2022-07-05T12:13:24;21.90;94.90
6377;DHT22;3221;48.858;10.128;2022-07-05T12:15:59;22.20;93.10
6377;DHT22;3221;48.858;10.128;2022-07-05T12:18:28;22.20;92.40
6377;DHT22;3221;48.858;10.128;2022-07-05T12:20:56;22.20;93.40
6377;DHT22;3221;48.858;10.128;2022-07-05T12:23:27;22.20;93.10
6377;DHT22;3221;48.858;10.128;2022-07-05T12:25:54;22.30;93.70
6377;DHT22;3221;48.858;10.128;2022-07-05T12:28:25;22.30;93.70
6377;DHT22;3221;48.858;10.128;2022-07-05T12:30:53;22.30;93.40
6377;DHT22;3221;48.858;10.128;2022-07-05T12:33:23;22.30;93.00
6377;DHT22;3221;48.858;10.128;2022-07-05T12:35:51;22.20;92.80
6377;DHT22;3221;48.858;10.128;2022-07-05T12:38:19;22.20;93.10
6377;DHT22;3221;48.858;10.128;2022-07-05T12:40:48;22.20;93.30
6377;DHT22;3221;48.858;10.128;2022-07-05T12:43:17;22.20;93.50
6377;DHT22;3221;48.858;10.128;2022-07-05T12:48:36;22.30;93.60
6377;DHT22;3221;48.858;10.128;2022-07-05T12:51:05;22.30;91.90
6377;DHT22;3221;48.858;10.128;2022-07-05T12:53:45;22.40;92.90
6377;DHT22;3221;48.858;10.128;2022-07-05T12:56:30;22.30;93.40
6377;DHT22;3221;48.858;10.128;2022-07-05T12:59:36;22.40;93.70
6377;DHT22;3221;48.858;10.128;2022-07-05T13:02:04;22.40;93.20
6377;DHT22;3221;48.858;10.128;2022-07-05T13:04:31;22.50;94.00
6377;DHT22;3221;48.858;10.128;2022-07-05T13:07:00;22.50;92.80
6377;DHT22;3221;48.858;10.128;2022-07-05T13:09:35;22.60;93.30
6377;DHT22;3221;48.858;10.128;2022-07-05T13:14:37;22.60;92.30
6377;DHT22;3221;48.858;10.128;2022-07-05T13:17:06;22.70;92.50
6377;DHT22;3221;48.858;10.128;2022-07-05T13:19:35;22.70;92.20
6377;DHT22;3221;48.858;10.128;2022-07-05T13:22:02;22.90;91.40
6377;DHT22;3221;48.858;10.128;2022-07-05T13:24:29;23.00;90.50
6377;DHT22;3221;48.858;10.128;2022-07-05T13:26:57;23.10;91.20
6377;DHT22;3221;48.858;10.128;2022-07-05T13:29:25;23.20;91.40
6377;DHT22;3221;48.858;10.128;2022-07-05T13:31:52;23.20;91.50
6377;DHT22;3221;48.858;10.128;2022-07-05T13:34:19;23.20;91.10
6377;DHT22;3221;48.858;10.128;2022-07-05T13:36:46;23.20;91.00
6377;DHT22;3221;48.858;10.128;2022-07-05T13:39:13;23.10;90.60
6377;DHT22;3221;48.858;10.128;2022-07-05T13:41:40;23.00;90.80
6377;DHT22;3221;48.858;10.128;2022-07-05T13:44:07;23.10;90.70
6377;DHT22;3221;48.858;10.128;2022-07-05T13:46:34;23.10;91.10
6377;DHT22;3221;48.858;10.128;2022-07-05T13:49:01;23.10;91.00
6377;DHT22;3221;48.858;10.128;2022-07-05T13:51:28;23.30;90.80
6377;DHT22;3221;48.858;10.128;2022-07-05T13:53:55;23.20;90.20
6377;DHT22;3221;48.858;10.128;2022-07-05T13:56:23;23.20;90.40
6377;DHT22;3221;48.858;10.128;2022-07-05T13:58:50;23.20;90.30
6377;DHT22;3221;48.858;10.128;2022-07-05T14:01:17;23.20;90.50
6377;DHT22;3221;48.858;10.128;2022-07-05T14:03:46;23.20;90.10
6377;DHT22;3221;48.858;10.128;2022-07-05T14:06:14;23.20;89.80
6377;DHT22;3221;48.858;10.128;2022-07-05T14:08:40;23.20;89.80
6377;DHT22;3221;48.858;10.128;2022-07-05T14:11:09;23.30;89.60
6377;DHT22;3221;48.858;10.128;2022-07-05T14:13:39;23.60;89.70
6377;DHT22;3221;48.858;10.128;2022-07-05T14:16:06;23.60;90.00
6377;DHT22;3221;48.858;10.128;2022-07-05T14:18:34;23.60;88.70
6377;DHT22;3221;48.858;10.128;2022-07-05T14:21:01;23.60;88.90
6377;DHT22;3221;48.858;10.128;2022-07-05T14:23:29;23.70;87.30
6377;DHT22;3221;48.858;10.128;2022-07-05T14:25:58;23.70;89.00
6377;DHT22;3221;48.858;10.128;2022-07-05T14:28:25;23.70;84.10
6377;DHT22;3221;48.858;10.128;2022-07-05T14:30:52;23.80;87.00
6377;DHT22;3221;48.858;10.128;2022-07-05T14:33:20;23.80;87.20
6377;DHT22;3221;48.858;10.128;2022-07-05T14:35:48;23.90;85.70
6377;DHT22;3221;48.858;10.128;2022-07-05T14:38:15;24.00;86.80
6377;DHT22;3221;48.858;10.128;2022-07-05T14:40:42;23.90;85.80
6377;DHT22;3221;48.858;10.128;2022-07-05T14:43:09;23.90;84.80
6377;DHT22;3221;48.858;10.128;2022-07-05T14:45:36;23.90;86.20
6377;DHT22;3221;48.858;10.128;2022-07-05T14:48:03;24.00;86.00
6377;DHT22;3221;48.858;10.128;2022-07-05T14:50:30;24.00;85.40
6377;DHT22;3221;48.858;10.128;2022-07-05T14:52:57;24.10;86.10
6377;DHT22;3221;48.858;10.128;2022-07-05T14:55:24;24.10;85.10
6377;DHT22;3221;48.858;10.128;2022-07-05T14:57:51;24.10;87.00
6377;DHT22;3221;48.858;10.128;2022-07-05T15:00:18;24.20;85.20
6377;DHT22;3221;48.858;10.128;2022-07-05T15:02:45;24.20;84.40
6377;DHT22;3221;48.858;10.128;2022-07-05T15:05:12;24.20;84.60
6377;DHT22;3221;48.858;10.128;2022-07-05T15:07:39;24.10;84.30
6377;DHT22;3221;48.858;10.128;2022-07-05T15:10:08;24.10;83.90
6377;DHT22;3221;48.858;10.128;2022-07-05T15:12:35;24.10;85.20
6377;DHT22;3221;48.858;10.128;2022-07-05T15:15:02;24.10;84.80
6377;DHT22;3221;48.858;10.128;2022-07-05T15:17:30;24.10;83.10
6377;DHT22;3221;48.858;10.128;2022-07-05T15:19:57;24.10;83.20
6377;DHT22;3221;48.858;10.128;2022-07-05T15:22:24;24.20;82.20
6377;DHT22;3221;48.858;10.128;2022-07-05T15:24:53;24.20;83.20
6377;DHT22;3221;48.858;10.128;2022-07-05T15:27:21;24.10;84.00
6377;DHT22;3221;48.858;10.128;2022-07-05T15:29:47;24.20;83.00
6377;DHT22;3221;48.858;10.128;2022-07-05T15:32:15;24.20;82.30
6377;DHT22;3221;48.858;10.128;2022-07-05T15:34:41;24.30;83.00
6377;DHT22;3221;48.858;10.128;2022-07-05T15:37:08;24.30;81.90
6377;DHT22;3221;48.858;10.128;2022-07-05T15:39:35;24.30;81.80
6377;DHT22;3221;48.858;10.128;2022-07-05T15:42:05;24.30;81.40
6377;DHT22;3221;48.858;10.128;2022-07-05T15:44:32;24.20;81.70
6377;DHT22;3221;48.858;10.128;2022-07-05T15:46:59;24.20;79.50
6377;DHT22;3221;48.858;10.128;2022-07-05T15:49:27;24.10;81.40
6377;DHT22;3221;48.858;10.128;2022-07-05T15:52:00;24.00;81.50
6377;DHT22;3221;48.858;10.128;2022-07-05T15:54:28;23.90;80.40
6377;DHT22;3221;48.858;10.128;2022-07-05T15:56:55;23.80;80.20
6377;DHT22;3221;48.858;10.128;2022-07-05T15:59:26;23.80;81.60
6377;DHT22;3221;48.858;10.128;2022-07-05T16:01:59;23.80;80.70
6377;DHT22;3221;48.858;10.128;2022-07-05T16:04:26;23.70;81.70
6377;DHT22;3221;48.858;10.128;2022-07-05T16:06:57;23.60;82.30
6377;DHT22;3221;48.858;10.128;2022-07-05T16:09:24;23.60;81.40
6377;DHT22;3221;48.858;10.128;2022-07-05T16:11:51;23.50;80.80
6377;DHT22;3221;48.858;10.128;2022-07-05T16:14:18;23.40;82.10
6377;DHT22;3221;48.858;10.128;2022-07-05T16:16:45;23.40;81.90
6377;DHT22;3221;48.858;10.128;2022-07-05T16:19:13;23.30;82.00
6377;DHT22;3221;48.858;10.128;2022-07-05T16:21:40;23.20;82.20
6377;DHT22;3221;48.858;10.128;2022-07-05T16:24:07;23.10;82.00